sensor_id;sensor_type;location;lat;lon;timestamp;temperature;humidity
9971;DHT22;5026;51.494;11.974;2023-05-19T00:01:20;11.40;79.70
9971;DHT22;5026;51.494;11.974;2023-05-19T00:06:22;11.90;80.30
9971;DHT22;5026;51.494;11.974;2023-05-19T00:08:53;11.50;80.00
9971;DHT22;5026;51.494;11.974;2023-05-19T00:13:51;11.60;80.40
9971;DHT22;5026;51.494;11.974;2023-05-19T00:16:19;11.40;80.30
9971;DHT22;5026;51.494;11.974;2023-05-19T00:21:14;11.40;80.20
9971;DHT22;5026;51.494;11.974;2023-05-19T00:23:42;11.30;80.10
9971;DHT22;5026;51.494;11.974;2023-05-19T00:28:37;11.30;80.40
9971;DHT22;5026;51.494;11.974;2023-05-19T00:31:04;11.30;80.20
9971;DHT22;5026;51.494;11.974;2023-05-19T00:33:32;11.30;80.50
9971;DHT22;5026;51.494;11.974;2023-05-19T00:35:59;11.30;80.50
9971;DHT22;5026;51.494;11.974;2023-05-19T00:45:50;11.20;80.40
9971;DHT22;5026;51.494;11.974;2023-05-19T00:50:45;11.20;80.50
9971;DHT22;5026;51.494;11.974;2023-05-19T00:53:13;13.50;82.40
9971;DHT22;5026;51.494;11.974;2023-05-19T00:55:41;11.10;80.70
9971;DHT22;5026;51.494;11.974;2023-05-19T00:58:11;11.10;81.00
9971;DHT22;5026;51.494;11.974;2023-05-19T01:00:38;11.00;81.10
9971;DHT22;5026;51.494;11.974;2023-05-19T01:05:37;10.90;81.70
9971;DHT22;5026;51.494;11.974;2023-05-19T01:08:05;10.90;82.00
9971;DHT22;5026;51.494;11.974;2023-05-19T01:10:32;10.80;82.30
9971;DHT22;5026;51.494;11.974;2023-05-19T01:12:59;10.80;82.70
9971;DHT22;5026;51.494;11.974;2023-05-19T01:15:27;10.70;83.00
9971;DHT22;5026;51.494;11.974;2023-05-19T01:18:00;10.60;83.40
9971;DHT22;5026;51.494;11.974;2023-05-19T01:20:35;10.60;83.80
9971;DHT22;5026;51.494;11.974;2023-05-19T01:23:17;10.60;84.30
9971;DHT22;5026;51.494;11.974;2023-05-19T01:26:17;10.50;84.70
9971;DHT22;5026;51.494;11.974;2023-05-19T01:31:35;10.40;85.90
9971;DHT22;5026;51.494;11.974;2023-05-19T01:34:02;10.30;86.70
9971;DHT22;5026;51.494;11.974;2023-05-19T01:36:31;10.30;87.30
9971;DHT22;5026;51.494;11.974;2023-05-19T01:48:51;10.10;90.00
9971;DHT22;5026;51.494;11.974;2023-05-19T01:51:19;10.10;90.30
9971;DHT22;5026;51.494;11.974;2023-05-19T01:53:46;10.40;90.80
9971;DHT22;5026;51.494;11.974;2023-05-19T01:56:16;10.00;90.90
9971;DHT22;5026;51.494;11.974;2023-05-19T01:58:47;9.90;91.60
9971;DHT22;5026;51.494;11.974;2023-05-19T02:01:26;9.90;91.90
9971;DHT22;5026;51.494;11.974;2023-05-19T02:04:11;9.80;92.20
9971;DHT22;5026;51.494;11.974;2023-05-19T02:06:43;9.80;92.50
9971;DHT22;5026;51.494;11.974;2023-05-19T02:09:15;7.80;92.20
9971;DHT22;5026;51.494;11.974;2023-05-19T02:11:49;9.70;93.20
9971;DHT22;5026;51.494;11.974;2023-05-19T02:14:22;9.70;93.70
9971;DHT22;5026;51.494;11.974;2023-05-19T02:16:51;9.60;94.00
9971;DHT22;5026;51.494;11.974;2023-05-19T02:19:22;9.50;94.40
9971;DHT22;5026;51.494;11.974;2023-05-19T02:21:50;9.50;94.80
9971;DHT22;5026;51.494;11.974;2023-05-19T02:26:47;9.40;95.50
9971;DHT22;5026;51.494;11.974;2023-05-19T02:31:42;9.30;96.20
9971;DHT22;5026;51.494;11.974;2023-05-19T02:36:39;9.20;96.90
9971;DHT22;5026;51.494;11.974;2023-05-19T02:39:07;9.20;97.20
9971;DHT22;5026;51.494;11.974;2023-05-19T02:41:35;9.10;97.50
9971;DHT22;5026;51.494;11.974;2023-05-19T02:44:02;9.10;97.80
9971;DHT22;5026;51.494;11.974;2023-05-19T02:46:29;9.10;98.10
9971;DHT22;5026;51.494;11.974;2023-05-19T02:53:52;8.90;98.90
9971;DHT22;5026;51.494;11.974;2023-05-19T02:58:46;8.80;99.40
9971;DHT22;5026;51.494;11.974;2023-05-19T03:08:35;8.70;99.90
9971;DHT22;5026;51.494;11.974;2023-05-19T03:11:04;8.60;99.90
9971;DHT22;5026;51.494;11.974;2023-05-19T03:13:31;8.60;99.90
9971;DHT22;5026;51.494;11.974;2023-05-19T03:20:53;8.80;99.90
9971;DHT22;5026;51.494;11.974;2023-05-19T03:23:20;8.90;99.90
9971;DHT22;5026;51.494;11.974;2023-05-19T03:25:47;8.70;99.90
9971;DHT22;5026;51.494;11.974;2023-05-19T03:28:16;8.90;99.90
9971;DHT22;5026;51.494;11.974;2023-05-19T03:30:43;8.60;99.90
9971;DHT22;5026;51.494;11.974;2023-05-19T03:38:05;8.80;99.90
9971;DHT22;5026;51.494;11.974;2023-05-19T03:40:32;8.80;99.90
9971;DHT22;5026;51.494;11.974;2023-05-19T03:42:59;8.80;99.90
9971;DHT22;5026;51.494;11.974;2023-05-19T03:45:28;8.80;99.90
9971;DHT22;5026;51.494;11.974;2023-05-19T03:47:54;8.90;99.90
9971;DHT22;5026;51.494;11.974;2023-05-19T04:02:41;8.80;99.90
9971;DHT22;5026;51.494;11.974;2023-05-19T04:05:08;8.90;99.90
9971;DHT22;5026;51.494;11.974;2023-05-19T04:07:35;8.80;99.90
9971;DHT22;5026;51.494;11.974;2023-05-19T04:10:03;8.90;99.90
9971;DHT22;5026;51.494;11.974;2023-05-19T04:14:58;8.80;99.90
9971;DHT22;5026;51.494;11.974;2023-05-19T04:17:25;9.00;99.90
9971;DHT22;5026;51.494;11.974;2023-05-19T04:19:53;9.00;99.90
9971;DHT22;5026;51.494;11.974;2023-05-19T04:22:20;9.00;99.90
9971;DHT22;5026;51.494;11.974;2023-05-19T04:27:17;9.20;99.90
9971;DHT22;5026;51.494;11.974;2023-05-19T04:29:44;9.30;99.90
9971;DHT22;5026;51.494;11.974;2023-05-19T04:32:12;9.50;99.90
9971;DHT22;5026;51.494;11.974;2023-05-19T04:34:42;9.30;99.90
9971;DHT22;5026;51.494;11.974;2023-05-19T04:37:12;9.30;99.90
9971;DHT22;5026;51.494;11.974;2023-05-19T04:47:05;9.40;99.90
9971;DHT22;5026;51.494;11.974;2023-05-19T04:52:05;9.60;99.90
9971;DHT22;5026;51.494;11.974;2023-05-19T04:54:34;9.70;99.90
9971;DHT22;5026;51.494;11.974;2023-05-19T05:01:56;9.40;99.90
9971;DHT22;5026;51.494;11.974;2023-05-19T05:06:53;9.50;99.90
9971;DHT22;5026;51.494;11.974;2023-05-19T05:09:20;9.50;99.90
9971;DHT22;5026;51.494;11.974;2023-05-19T05:11:49;9.60;99.90
9971;DHT22;5026;51.494;11.974;2023-05-19T05:14:17;9.50;99.90
9971;DHT22;5026;51.494;11.974;2023-05-19T05:16:44;9.60;99.90
9971;DHT22;5026;51.494;11.974;2023-05-19T05:19:12;9.50;99.90
9971;DHT22;5026;51.494;11.974;2023-05-19T05:21:39;9.60;99.90
9971;DHT22;5026;51.494;11.974;2023-05-19T05:24:09;9.60;99.90
9971;DHT22;5026;51.494;11.974;2023-05-19T05:26:36;9.60;99.90
9971;DHT22;5026;51.494;11.974;2023-05-19T05:29:05;9.50;99.90
9971;DHT22;5026;51.494;11.974;2023-05-19T05:31:32;9.30;99.90
9971;DHT22;5026;51.494;11.974;2023-05-19T06:41:31;11.60;99.60
9971;DHT22;5026;51.494;11.974;2023-05-19T06:43:58;11.70;99.70
9971;DHT22;5026;51.494;11.974;2023-05-19T06:46:25;11.90;99.50
9971;DHT22;5026;51.494;11.974;2023-05-19T06:51:19;11.90;99.40
9971;DHT22;5026;51.494;11.974;2023-05-19T06:53:47;12.00;99.50
9971;DHT22;5026;51.494;11.974;2023-05-19T06:56:14;12.20;99.10
9971;DHT22;5026;51.494;11.974;2023-05-19T06:58:44;12.30;99.20
9971;DHT22;5026;51.494;11.974;2023-05-19T07:03:38;12.80;99.00
9971;DHT22;5026;51.494;11.974;2023-05-19T07:06:05;13.20;98.60
9971;DHT22;5026;51.494;11.974;2023-05-19T07:08:32;13.60;98.10
9971;DHT22;5026;51.494;11.974;2023-05-19T07:15:58;15.00;96.60
9971;DHT22;5026;51.494;11.974;2023-05-19T07:18:25;15.20;95.80
9971;DHT22;5026;51.494;11.974;2023-05-19T07:20:56;15.60;95.10
9971;DHT22;5026;51.494;11.974;2023-05-19T07:23:23;15.10;95.10
9971;DHT22;5026;51.494;11.974;2023-05-19T07:25:53;15.00;95.50
9971;DHT22;5026;51.494;11.974;2023-05-19T07:28:20;15.20;95.60
9971;DHT22;5026;51.494;11.974;2023-05-19T07:30:47;15.30;95.20
9971;DHT22;5026;51.494;11.974;2023-05-19T07:33:16;15.20;95.20
9971;DHT22;5026;51.494;11.974;2023-05-19T07:35:43;15.50;95.00
9971;DHT22;5026;51.494;11.974;2023-05-19T07:38:11;15.50;94.60
9971;DHT22;5026;51.494;11.974;2023-05-19T07:40:37;15.50;94.50
9971;DHT22;5026;51.494;11.974;2023-05-19T07:45:32;15.90;94.50
9971;DHT22;5026;51.494;11.974;2023-05-19T07:47:59;16.70;94.00
9971;DHT22;5026;51.494;11.974;2023-05-19T07:50:27;16.50;93.30
9971;DHT22;5026;51.494;11.974;2023-05-19T07:57:49;18.90;91.20
9971;DHT22;5026;51.494;11.974;2023-05-19T08:00:16;19.40;89.90
9971;DHT22;5026;51.494;11.974;2023-05-19T08:05:11;18.40;89.90
9971;DHT22;5026;51.494;11.974;2023-05-19T08:07:39;18.00;88.00
9971;DHT22;5026;51.494;11.974;2023-05-19T08:10:07;17.20;89.50
9971;DHT22;5026;51.494;11.974;2023-05-19T08:12:34;17.10;89.60
9971;DHT22;5026;51.494;11.974;2023-05-19T08:15:01;20.10;89.60
9971;DHT22;5026;51.494;11.974;2023-05-19T08:19:55;19.90;84.00
9971;DHT22;5026;51.494;11.974;2023-05-19T08:22:22;18.50;85.20
9971;DHT22;5026;51.494;11.974;2023-05-19T08:24:50;17.80;85.80
9971;DHT22;5026;51.494;11.974;2023-05-19T08:27:17;17.90;87.30
9971;DHT22;5026;51.494;11.974;2023-05-19T08:29:43;17.60;87.80
9971;DHT22;5026;51.494;11.974;2023-05-19T08:32:10;17.90;87.00
9971;DHT22;5026;51.494;11.974;2023-05-19T08:37:06;19.70;82.80
9971;DHT22;5026;51.494;11.974;2023-05-19T08:39:33;20.10;80.00
9971;DHT22;5026;51.494;11.974;2023-05-19T08:42:01;20.70;77.60
9971;DHT22;5026;51.494;11.974;2023-05-19T08:46:59;21.50;75.20
9971;DHT22;5026;51.494;11.974;2023-05-19T08:51:58;20.20;71.60
9971;DHT22;5026;51.494;11.974;2023-05-19T08:54:36;19.30;73.30
9971;DHT22;5026;51.494;11.974;2023-05-19T08:57:10;20.20;73.80
9971;DHT22;5026;51.494;11.974;2023-05-19T08:59:38;21.40;71.40
9971;DHT22;5026;51.494;11.974;2023-05-19T09:02:08;20.40;72.50
9971;DHT22;5026;51.494;11.974;2023-05-19T09:04:37;21.30;71.00
9971;DHT22;5026;51.494;11.974;2023-05-19T09:07:05;20.90;71.20
9971;DHT22;5026;51.494;11.974;2023-05-19T09:09:33;21.70;71.20
9971;DHT22;5026;51.494;11.974;2023-05-19T09:14:29;20.00;71.60
9971;DHT22;5026;51.494;11.974;2023-05-19T09:16:56;19.40;71.80
9971;DHT22;5026;51.494;11.974;2023-05-19T09:21:57;18.50;71.50
9971;DHT22;5026;51.494;11.974;2023-05-19T09:26:54;18.70;73.00
9971;DHT22;5026;51.494;11.974;2023-05-19T09:29:22;19.80;72.40
9971;DHT22;5026;51.494;11.974;2023-05-19T09:31:51;19.30;71.90
9971;DHT22;5026;51.494;11.974;2023-05-19T09:34:21;18.40;69.80
9971;DHT22;5026;51.494;11.974;2023-05-19T09:36:49;18.30;70.20
9971;DHT22;5026;51.494;11.974;2023-05-19T09:39:18;18.60;70.70
9971;DHT22;5026;51.494;11.974;2023-05-19T09:41:46;19.00;71.30
9971;DHT22;5026;51.494;11.974;2023-05-19T09:44:14;19.10;71.20
9971;DHT22;5026;51.494;11.974;2023-05-19T09:49:20;17.40;72.30
9971;DHT22;5026;51.494;11.974;2023-05-19T09:51:52;17.50;72.10
9971;DHT22;5026;51.494;11.974;2023-05-19T09:54:20;18.10;72.30
9971;DHT22;5026;51.494;11.974;2023-05-19T09:56:51;18.20;71.20
9971;DHT22;5026;51.494;11.974;2023-05-19T09:59:23;17.00;70.50
9971;DHT22;5026;51.494;11.974;2023-05-19T10:01:53;16.90;71.10
9971;DHT22;5026;51.494;11.974;2023-05-19T10:04:21;17.40;71.90
9971;DHT22;5026;51.494;11.974;2023-05-19T10:06:49;17.80;70.90
9971;DHT22;5026;51.494;11.974;2023-05-19T10:09:21;17.70;71.20
9971;DHT22;5026;51.494;11.974;2023-05-19T10:11:50;17.90;71.30
9971;DHT22;5026;51.494;11.974;2023-05-19T10:14:19;17.40;71.90
9971;DHT22;5026;51.494;11.974;2023-05-19T10:16:49;17.20;72.90
9971;DHT22;5026;51.494;11.974;2023-05-19T10:19:21;16.90;73.00
9971;DHT22;5026;51.494;11.974;2023-05-19T10:21:49;16.90;73.90
9971;DHT22;5026;51.494;11.974;2023-05-19T10:24:16;17.10;70.70
9971;DHT22;5026;51.494;11.974;2023-05-19T10:26:45;17.20;70.50
9971;DHT22;5026;51.494;11.974;2023-05-19T10:29:16;17.20;70.50
9971;DHT22;5026;51.494;11.974;2023-05-19T10:31:46;17.00;71.00
9971;DHT22;5026;51.494;11.974;2023-05-19T10:34:32;17.50;70.20
9971;DHT22;5026;51.494;11.974;2023-05-19T10:37:10;17.50;69.70
9971;DHT22;5026;51.494;11.974;2023-05-19T10:42:14;17.00;68.40
9971;DHT22;5026;51.494;11.974;2023-05-19T10:44:52;17.00;68.80
9971;DHT22;5026;51.494;11.974;2023-05-19T10:47:22;17.10;68.00
9971;DHT22;5026;51.494;11.974;2023-05-19T10:49:52;17.70;69.30
9971;DHT22;5026;51.494;11.974;2023-05-19T10:52:20;17.60;68.40
9971;DHT22;5026;51.494;11.974;2023-05-19T10:54:50;17.40;68.70
9971;DHT22;5026;51.494;11.974;2023-05-19T10:57:19;17.60;68.00
9971;DHT22;5026;51.494;11.974;2023-05-19T10:59:50;17.80;69.30
9971;DHT22;5026;51.494;11.974;2023-05-19T11:02:35;18.20;69.30
9971;DHT22;5026;51.494;11.974;2023-05-19T11:05:08;17.60;67.50
9971;DHT22;5026;51.494;11.974;2023-05-19T11:07:35;17.80;67.80
9971;DHT22;5026;51.494;11.974;2023-05-19T11:10:06;18.30;67.80
9971;DHT22;5026;51.494;11.974;2023-05-19T11:12:44;17.70;66.60
9971;DHT22;5026;51.494;11.974;2023-05-19T11:15:12;18.10;67.50
9971;DHT22;5026;51.494;11.974;2023-05-19T11:17:39;18.00;66.60
9971;DHT22;5026;51.494;11.974;2023-05-19T11:20:20;17.40;65.80
9971;DHT22;5026;51.494;11.974;2023-05-19T11:23:03;17.30;66.60
9971;DHT22;5026;51.494;11.974;2023-05-19T11:25:46;17.90;67.10
9971;DHT22;5026;51.494;11.974;2023-05-19T11:28:15;17.60;67.20
9971;DHT22;5026;51.494;11.974;2023-05-19T11:30:44;17.40;67.40
9971;DHT22;5026;51.494;11.974;2023-05-19T11:33:14;17.40;68.10
9971;DHT22;5026;51.494;11.974;2023-05-19T11:35:46;17.50;67.70
9971;DHT22;5026;51.494;11.974;2023-05-19T11:38:14;18.10;68.70
9971;DHT22;5026;51.494;11.974;2023-05-19T11:40:42;18.40;68.50
9971;DHT22;5026;51.494;11.974;2023-05-19T11:43:09;18.30;68.80
9971;DHT22;5026;51.494;11.974;2023-05-19T11:45:37;17.50;68.60
9971;DHT22;5026;51.494;11.974;2023-05-19T11:48:04;17.90;69.00
9971;DHT22;5026;51.494;11.974;2023-05-19T11:50:31;17.80;68.40
9971;DHT22;5026;51.494;11.974;2023-05-19T11:55:28;18.30;68.00
9971;DHT22;5026;51.494;11.974;2023-05-19T11:57:56;18.10;67.50
9971;DHT22;5026;51.494;11.974;2023-05-19T12:00:24;18.00;67.10
9971;DHT22;5026;51.494;11.974;2023-05-19T12:02:51;18.00;68.20
9971;DHT22;5026;51.494;11.974;2023-05-19T12:05:19;17.60;68.60
9971;DHT22;5026;51.494;11.974;2023-05-19T12:07:47;17.70;67.00
9971;DHT22;5026;51.494;11.974;2023-05-19T12:10:20;17.50;66.10
9971;DHT22;5026;51.494;11.974;2023-05-19T12:12:47;17.80;66.90
9971;DHT22;5026;51.494;11.974;2023-05-19T12:15:18;17.70;67.10
9971;DHT22;5026;51.494;11.974;2023-05-19T12:17:47;17.40;68.30
9971;DHT22;5026;51.494;11.974;2023-05-19T12:20:14;17.70;68.40
9971;DHT22;5026;51.494;11.974;2023-05-19T12:22:42;18.10;68.60
9971;DHT22;5026;51.494;11.974;2023-05-19T12:25:09;18.40;68.50
9971;DHT22;5026;51.494;11.974;2023-05-19T12:27:38;18.30;67.70
9971;DHT22;5026;51.494;11.974;2023-05-19T12:30:06;18.40;68.10
9971;DHT22;5026;51.494;11.974;2023-05-19T12:32:33;18.80;68.00
9971;DHT22;5026;51.494;11.974;2023-05-19T12:35:02;18.70;68.30
9971;DHT22;5026;51.494;11.974;2023-05-19T12:37:30;18.40;67.30
9971;DHT22;5026;51.494;11.974;2023-05-19T12:39:59;17.90;68.10
9971;DHT22;5026;51.494;11.974;2023-05-19T12:44:59;17.50;68.20
9971;DHT22;5026;51.494;11.974;2023-05-19T12:47:30;17.40;68.20
9971;DHT22;5026;51.494;11.974;2023-05-19T12:50:03;17.60;68.30
9971;DHT22;5026;51.494;11.974;2023-05-19T12:52:32;17.80;68.50
9971;DHT22;5026;51.494;11.974;2023-05-19T12:55:01;17.90;67.90
9971;DHT22;5026;51.494;11.974;2023-05-19T12:57:29;18.10;68.20
9971;DHT22;5026;51.494;11.974;2023-05-19T13:00:04;18.20;67.90
9971;DHT22;5026;51.494;11.974;2023-05-19T13:02:33;18.20;68.50
9971;DHT22;5026;51.494;11.974;2023-05-19T13:05:01;18.40;68.60
9971;DHT22;5026;51.494;11.974;2023-05-19T13:07:31;18.60;67.30
9971;DHT22;5026;51.494;11.974;2023-05-19T13:10:00;18.40;67.50
9971;DHT22;5026;51.494;11.974;2023-05-19T13:12:27;18.10;67.30
9971;DHT22;5026;51.494;11.974;2023-05-19T13:14:53;18.40;68.10
9971;DHT22;5026;51.494;11.974;2023-05-19T13:17:22;19.00;69.80
9971;DHT22;5026;51.494;11.974;2023-05-19T13:19:49;17.70;68.60
9971;DHT22;5026;51.494;11.974;2023-05-19T13:22:15;18.30;68.80
9971;DHT22;5026;51.494;11.974;2023-05-19T13:24:42;18.80;68.80
9971;DHT22;5026;51.494;11.974;2023-05-19T13:27:09;18.00;68.30
9971;DHT22;5026;51.494;11.974;2023-05-19T13:29:36;18.10;68.70
9971;DHT22;5026;51.494;11.974;2023-05-19T13:32:03;18.40;69.00
9971;DHT22;5026;51.494;11.974;2023-05-19T13:36:59;17.90;68.50
9971;DHT22;5026;51.494;11.974;2023-05-19T13:39:26;17.60;68.50
9971;DHT22;5026;51.494;11.974;2023-05-19T13:41:53;17.90;68.50
9971;DHT22;5026;51.494;11.974;2023-05-19T13:44:20;18.20;68.80
9971;DHT22;5026;51.494;11.974;2023-05-19T13:49:16;18.20;68.80
9971;DHT22;5026;51.494;11.974;2023-05-19T13:51:44;18.40;68.60
9971;DHT22;5026;51.494;11.974;2023-05-19T13:54:11;17.90;68.30
9971;DHT22;5026;51.494;11.974;2023-05-19T14:01:33;18.70;68.30
9971;DHT22;5026;51.494;11.974;2023-05-19T14:04:01;18.40;68.60
9971;DHT22;5026;51.494;11.974;2023-05-19T14:08:57;19.00;67.80
9971;DHT22;5026;51.494;11.974;2023-05-19T14:11:24;18.90;68.10
9971;DHT22;5026;51.494;11.974;2023-05-19T14:13:51;18.50;68.20
9971;DHT22;5026;51.494;11.974;2023-05-19T14:16:17;18.50;68.20
9971;DHT22;5026;51.494;11.974;2023-05-19T14:18:44;18.90;68.60
9971;DHT22;5026;51.494;11.974;2023-05-19T14:21:11;18.20;67.50
9971;DHT22;5026;51.494;11.974;2023-05-19T14:28:34;18.90;67.90
9971;DHT22;5026;51.494;11.974;2023-05-19T14:31:01;18.80;67.50
9971;DHT22;5026;51.494;11.974;2023-05-19T14:35:55;18.20;68.20
9971;DHT22;5026;51.494;11.974;2023-05-19T14:38:24;18.40;68.60
9971;DHT22;5026;51.494;11.974;2023-05-19T14:40:51;18.30;68.60
9971;DHT22;5026;51.494;11.974;2023-05-19T14:43:19;18.70;68.60
9971;DHT22;5026;51.494;11.974;2023-05-19T14:45:46;18.70;69.40
9971;DHT22;5026;51.494;11.974;2023-05-19T14:48:13;19.00;69.40
9971;DHT22;5026;51.494;11.974;2023-05-19T14:50:40;18.70;69.70
9971;DHT22;5026;51.494;11.974;2023-05-19T14:58:02;18.20;69.20
9971;DHT22;5026;51.494;11.974;2023-05-19T15:00:30;18.30;69.20
9971;DHT22;5026;51.494;11.974;2023-05-19T15:02:57;18.70;69.80
9971;DHT22;5026;51.494;11.974;2023-05-19T15:07:51;18.80;69.50
9971;DHT22;5026;51.494;11.974;2023-05-19T15:10:19;18.60;69.50
9971;DHT22;5026;51.494;11.974;2023-05-19T15:12:46;18.40;69.20
9971;DHT22;5026;51.494;11.974;2023-05-19T15:15:13;18.10;69.40
9971;DHT22;5026;51.494;11.974;2023-05-19T15:17:43;18.00;69.60
9971;DHT22;5026;51.494;11.974;2023-05-19T15:20:11;18.30;69.60
9971;DHT22;5026;51.494;11.974;2023-05-19T15:25:07;18.30;70.30
9971;DHT22;5026;51.494;11.974;2023-05-19T15:27:34;18.40;70.80
9971;DHT22;5026;51.494;11.974;2023-05-19T15:30:01;18.00;70.40
9971;DHT22;5026;51.494;11.974;2023-05-19T15:32:28;18.10;70.50
9971;DHT22;5026;51.494;11.974;2023-05-19T15:37:24;18.30;69.90
9971;DHT22;5026;51.494;11.974;2023-05-19T15:39:51;18.20;71.00
9971;DHT22;5026;51.494;11.974;2023-05-19T15:44:46;18.40;71.70
9971;DHT22;5026;51.494;11.974;2023-05-19T15:47:13;18.40;72.00
9971;DHT22;5026;51.494;11.974;2023-05-19T15:49:40;18.00;73.00
9971;DHT22;5026;51.494;11.974;2023-05-19T15:52:09;18.10;73.00
9971;DHT22;5026;51.494;11.974;2023-05-19T15:54:35;18.20;73.00
9971;DHT22;5026;51.494;11.974;2023-05-19T15:57:03;17.90;72.40
9971;DHT22;5026;51.494;11.974;2023-05-19T15:59:30;18.10;72.90
9971;DHT22;5026;51.494;11.974;2023-05-19T16:01:57;18.10;72.70
9971;DHT22;5026;51.494;11.974;2023-05-19T16:04:24;18.20;72.50
9971;DHT22;5026;51.494;11.974;2023-05-19T16:06:51;18.10;72.50
9971;DHT22;5026;51.494;11.974;2023-05-19T16:09:19;17.80;72.40
9971;DHT22;5026;51.494;11.974;2023-05-19T16:11:46;18.00;73.40
9971;DHT22;5026;51.494;11.974;2023-05-19T16:14:12;18.00;73.60
9971;DHT22;5026;51.494;11.974;2023-05-19T16:19:08;17.80;73.60
9971;DHT22;5026;51.494;11.974;2023-05-19T16:26:32;17.50;74.60
9971;DHT22;5026;51.494;11.974;2023-05-19T16:28:59;17.50;74.30
9971;DHT22;5026;51.494;11.974;2023-05-19T16:33:53;17.60;74.50
9971;DHT22;5026;51.494;11.974;2023-05-19T16:36:20;17.40;74.30
9971;DHT22;5026;51.494;11.974;2023-05-19T16:38:47;17.40;74.20
9971;DHT22;5026;51.494;11.974;2023-05-19T16:41:14;17.50;74.30
9971;DHT22;5026;51.494;11.974;2023-05-19T16:43:42;17.30;74.40
9971;DHT22;5026;51.494;11.974;2023-05-19T16:48:37;17.30;74.60
9971;DHT22;5026;51.494;11.974;2023-05-19T16:51:04;17.30;75.10
9971;DHT22;5026;51.494;11.974;2023-05-19T16:55:58;17.30;75.60
9971;DHT22;5026;51.494;11.974;2023-05-19T16:58:25;17.10;75.50
9971;DHT22;5026;51.494;11.974;2023-05-19T17:00:53;17.30;75.70
9971;DHT22;5026;51.494;11.974;2023-05-19T17:03:21;16.40;75.30
9971;DHT22;5026;51.494;11.974;2023-05-19T17:08:15;16.60;75.70
9971;DHT22;5026;51.494;11.974;2023-05-19T17:10:42;16.60;75.80
9971;DHT22;5026;51.494;11.974;2023-05-19T17:13:09;16.60;76.40
9971;DHT22;5026;51.494;11.974;2023-05-19T17:15:36;16.80;76.50
9971;DHT22;5026;51.494;11.974;2023-05-19T17:18:05;16.90;76.70
9971;DHT22;5026;51.494;11.974;2023-05-19T17:22:59;16.70;77.00
9971;DHT22;5026;51.494;11.974;2023-05-19T17:25:26;16.20;77.10
9971;DHT22;5026;51.494;11.974;2023-05-19T17:27:52;16.50;77.40
9971;DHT22;5026;51.494;11.974;2023-05-19T17:30:20;16.50;77.80
9971;DHT22;5026;51.494;11.974;2023-05-19T17:32:47;16.30;78.00
9971;DHT22;5026;51.494;11.974;2023-05-19T17:35:17;16.40;78.10
9971;DHT22;5026;51.494;11.974;2023-05-19T17:37:43;16.40;78.50
9971;DHT22;5026;51.494;11.974;2023-05-19T17:40:11;16.70;79.20
9971;DHT22;5026;51.494;11.974;2023-05-19T17:42:38;16.30;79.00
9971;DHT22;5026;51.494;11.974;2023-05-19T17:45:06;16.30;78.90
9971;DHT22;5026;51.494;11.974;2023-05-19T17:47:36;15.80;78.80
9971;DHT22;5026;51.494;11.974;2023-05-19T17:50:03;16.40;79.40
9971;DHT22;5026;51.494;11.974;2023-05-19T17:52:33;16.10;79.40
9971;DHT22;5026;51.494;11.974;2023-05-19T17:55:00;16.00;79.90
9971;DHT22;5026;51.494;11.974;2023-05-19T17:59:57;15.90;80.40
9971;DHT22;5026;51.494;11.974;2023-05-19T18:02:24;15.90;80.60
9971;DHT22;5026;51.494;11.974;2023-05-19T18:04:52;15.90;80.80
9971;DHT22;5026;51.494;11.974;2023-05-19T18:07:21;15.80;81.70
9971;DHT22;5026;51.494;11.974;2023-05-19T18:09:51;15.80;81.70
9971;DHT22;5026;51.494;11.974;2023-05-19T18:12:19;15.80;82.40
9971;DHT22;5026;51.494;11.974;2023-05-19T18:14:47;15.20;82.20
9971;DHT22;5026;51.494;11.974;2023-05-19T18:17:14;15.60;82.60
9971;DHT22;5026;51.494;11.974;2023-05-19T18:19:41;15.60;82.90
9971;DHT22;5026;51.494;11.974;2023-05-19T18:24:37;16.00;84.10
9971;DHT22;5026;51.494;11.974;2023-05-19T18:27:06;15.40;83.80
9971;DHT22;5026;51.494;11.974;2023-05-19T18:29:33;15.50;84.70
9971;DHT22;5026;51.494;11.974;2023-05-19T18:36:55;15.30;86.00
9971;DHT22;5026;51.494;11.974;2023-05-19T18:39:22;15.20;86.30
9971;DHT22;5026;51.494;11.974;2023-05-19T18:41:49;15.00;87.00
9971;DHT22;5026;51.494;11.974;2023-05-19T18:44:17;15.00;87.20
9971;DHT22;5026;51.494;11.974;2023-05-19T18:49:11;15.00;88.60
9971;DHT22;5026;51.494;11.974;2023-05-19T18:51:38;14.90;88.80
9971;DHT22;5026;51.494;11.974;2023-05-19T18:54:06;14.90;89.50
9971;DHT22;5026;51.494;11.974;2023-05-19T18:56:33;14.80;89.90
9971;DHT22;5026;51.494;11.974;2023-05-19T18:59:00;14.80;90.10
9971;DHT22;5026;51.494;11.974;2023-05-19T19:03:56;14.60;90.50
9971;DHT22;5026;51.494;11.974;2023-05-19T19:08:50;14.60;90.90
9971;DHT22;5026;51.494;11.974;2023-05-19T19:13:44;14.70;91.40
9971;DHT22;5026;51.494;11.974;2023-05-19T19:18:40;14.40;91.40
9971;DHT22;5026;51.494;11.974;2023-05-19T19:21:07;14.30;91.60
9971;DHT22;5026;51.494;11.974;2023-05-19T19:23:34;14.30;91.90
9971;DHT22;5026;51.494;11.974;2023-05-19T19:26:01;14.30;92.20
9971;DHT22;5026;51.494;11.974;2023-05-19T19:28:28;14.20;92.30
9971;DHT22;5026;51.494;11.974;2023-05-19T19:35:51;14.00;92.90
9971;DHT22;5026;51.494;11.974;2023-05-19T19:38:18;14.10;93.30
9971;DHT22;5026;51.494;11.974;2023-05-19T19:40:45;14.00;93.50
9971;DHT22;5026;51.494;11.974;2023-05-19T19:43:12;14.00;93.60
9971;DHT22;5026;51.494;11.974;2023-05-19T19:45:39;13.80;93.70
9971;DHT22;5026;51.494;11.974;2023-05-19T19:50:33;13.80;93.80
9971;DHT22;5026;51.494;11.974;2023-05-19T19:57:56;13.70;94.20
9971;DHT22;5026;51.494;11.974;2023-05-19T20:07:46;13.30;94.20
9971;DHT22;5026;51.494;11.974;2023-05-19T20:10:14;13.70;94.10
9971;DHT22;5026;51.494;11.974;2023-05-19T20:12:41;13.70;94.60
9971;DHT22;5026;51.494;11.974;2023-05-19T20:15:09;13.60;94.30
9971;DHT22;5026;51.494;11.974;2023-05-19T20:17:36;13.60;94.50
9971;DHT22;5026;51.494;11.974;2023-05-19T20:22:34;13.60;94.80
9971;DHT22;5026;51.494;11.974;2023-05-19T20:25:01;14.10;95.40
9971;DHT22;5026;51.494;11.974;2023-05-19T20:27:29;13.50;95.00
9971;DHT22;5026;51.494;11.974;2023-05-19T20:29:56;13.60;95.40
9971;DHT22;5026;51.494;11.974;2023-05-19T20:34:50;13.70;95.80
9971;DHT22;5026;51.494;11.974;2023-05-19T20:37:17;13.30;95.30
9971;DHT22;5026;51.494;11.974;2023-05-19T20:39:45;13.50;95.90
9971;DHT22;5026;51.494;11.974;2023-05-19T20:44:41;13.40;95.60
9971;DHT22;5026;51.494;11.974;2023-05-19T20:52:03;13.20;96.30
9971;DHT22;5026;51.494;11.974;2023-05-19T20:56:58;13.20;96.60
9971;DHT22;5026;51.494;11.974;2023-05-19T20:59:25;13.10;96.70
9971;DHT22;5026;51.494;11.974;2023-05-19T21:01:53;13.10;96.80
9971;DHT22;5026;51.494;11.974;2023-05-19T21:04:20;13.20;96.90
9971;DHT22;5026;51.494;11.974;2023-05-19T21:16:36;12.90;97.70
9971;DHT22;5026;51.494;11.974;2023-05-19T21:19:05;12.30;97.80
9971;DHT22;5026;51.494;11.974;2023-05-19T21:21:32;12.80;98.10
9971;DHT22;5026;51.494;11.974;2023-05-19T21:28:54;13.20;98.60
9971;DHT22;5026;51.494;11.974;2023-05-19T21:36:17;12.80;98.80
9971;DHT22;5026;51.494;11.974;2023-05-19T21:38:44;12.50;98.90
9971;DHT22;5026;51.494;11.974;2023-05-19T21:41:11;12.70;98.80